地図

経路データ

SID SEASON NUMBER BASIN SUBBASIN NAME ISO_TIME NATURE LAT LON WMO_WIND WMO_PRES WMO_AGENCY TRACK_TYPE DIST2LAND LANDFALL IFLAG USA_AGENCY USA_ATCF_ID USA_LAT USA_LON USA_RECORD USA_STATUS USA_WIND USA_PRES USA_SSHS USA_R34_NE USA_R34_SE USA_R34_SW USA_R34_NW USA_R50_NE USA_R50_SE USA_R50_SW USA_R50_NW USA_R64_NE USA_R64_SE USA_R64_SW USA_R64_NW USA_POCI USA_ROCI USA_RMW USA_EYE TOKYO_LAT TOKYO_LON TOKYO_GRADE TOKYO_WIND TOKYO_PRES TOKYO_R50_DIR TOKYO_R50_LONG TOKYO_R50_SHORT TOKYO_R30_DIR TOKYO_R30_LONG TOKYO_R30_SHORT TOKYO_LAND CMA_LAT CMA_LON CMA_CAT CMA_WIND CMA_PRES HKO_LAT HKO_LON HKO_CAT HKO_WIND HKO_PRES NEWDELHI_LAT NEWDELHI_LON NEWDELHI_GRADE NEWDELHI_WIND NEWDELHI_PRES NEWDELHI_CI NEWDELHI_DP NEWDELHI_POCI REUNION_LAT REUNION_LON REUNION_TYPE REUNION_WIND REUNION_PRES REUNION_TNUM REUNION_CI REUNION_RMW REUNION_R34_NE REUNION_R34_SE REUNION_R34_SW REUNION_R34_NW REUNION_R50_NE REUNION_R50_SE REUNION_R50_SW REUNION_R50_NW REUNION_R64_NE REUNION_R64_SE REUNION_R64_SW REUNION_R64_NW BOM_LAT BOM_LON BOM_TYPE BOM_WIND BOM_PRES BOM_TNUM BOM_CI BOM_RMW BOM_R34_NE BOM_R34_SE BOM_R34_SW BOM_R34_NW BOM_R50_NE BOM_R50_SE BOM_R50_SW BOM_R50_NW BOM_R64_NE BOM_R64_SE BOM_R64_SW BOM_R64_NW BOM_ROCI BOM_POCI BOM_EYE BOM_POS_METHOD BOM_PRES_METHOD NADI_LAT NADI_LON NADI_CAT NADI_WIND NADI_PRES WELLINGTON_LAT WELLINGTON_LON WELLINGTON_WIND WELLINGTON_PRES DS824_LAT DS824_LON DS824_STAGE DS824_WIND DS824_PRES TD9636_LAT TD9636_LON TD9636_STAGE TD9636_WIND TD9636_PRES TD9635_LAT TD9635_LON TD9635_WIND TD9635_PRES TD9635_ROCI NEUMANN_LAT NEUMANN_LON NEUMANN_CLASS NEUMANN_WIND NEUMANN_PRES MLC_LAT MLC_LON MLC_CLASS MLC_WIND MLC_PRES USA_GUST BOM_GUST BOM_GUST_PER REUNION_GUST REUNION_GUST_PER USA_SEAHGT USA_SEARAD_NE USA_SEARAD_SE USA_SEARAD_SW USA_SEARAD_NW STORM_SPEED STORM_DIR
1881230N28281 1881 32 NA NA NOT_NAMED 1881-08-18 09:00:00 TS 27.5498 -78.6649 spur-other 149 149 ______________ -1 12 55
1881230N28281 1881 32 NA NA NOT_NAMED 1881-08-18 12:00:00 TS 27.9000 -78.1000 spur-other 221 221 _____________O -1 27.9000 -78.1000 HU 70 12 57
1881230N28281 1881 32 NA NA NOT_NAMED 1881-08-18 15:00:00 TS 28.1997 -77.5144 spur-other 288 288 _____________P -1 28.1880 -77.5079 HU 70 12 60
1881230N28281 1881 32 NA NA NOT_NAMED 1881-08-18 18:00:00 TS 28.5000 -76.9000 spur-other 351 351 _____________O -1 28.5000 -76.9000 HU 70 13 59
1881230N28281 1881 32 NA NA NOT_NAMED 1881-08-18 21:00:00 TS 28.8497 -76.2648 spur-other 410 410 _____________P -1 28.8497 -76.2648 HU 70 13 58
1881230N28281 1881 32 NA NA NOT_NAMED 1881-08-19 00:00:00 TS 29.2000 -75.6000 spur-other 482 482 _____________O -1 29.2000 -75.6000 HU 70 14 61
1881230N28281 1881 32 NA NA NOT_NAMED 1881-08-19 03:00:00 TS 29.4997 -74.9068 spur-other 555 555 _____________P -1 29.4997 -74.9068 HU 70 14 64
1881230N28281 1881 32 NA NA NOT_NAMED 1881-08-19 06:00:00 TS 29.8000 -74.2000 spur-other 580 580 _____________O -1 29.8000 -74.2000 HU 70 14 64
1881230N28281 1881 32 NA NA NOT_NAMED 1881-08-19 09:00:00 TS 30.0898 -73.4911 spur-other 584 580 _____________P -1 30.0898 -73.4911 HU 70 14 60
1881230N28281 1881 32 NA NA NOT_NAMED 1881-08-19 12:00:00 TS 30.5000 -72.8000 spur-other 582 567 _____________O -1 30.5000 -72.8000 HU 70 16 48
1881230N28281 1881 32 NA NA NOT_NAMED 1881-08-19 15:00:00 TS 31.1471 -72.1425 spur-other 573 556 _____________P -1 31.1471 -72.1425 HU 70 18 38
1881230N28281 1881 32 NA NA NOT_NAMED 1881-08-19 18:00:00 TS 31.9000 -71.5000 spur-other 556 550 _____________O -1 31.9000 -71.5000 HU 70 18 37
1881230N28281 1881 32 NA NA NOT_NAMED 1881-08-19 21:00:00 TS 32.5995 -70.8563 spur-other 552 552 _____________P -1 32.5995 -70.8563 HU 70 18 38
1881230N28281 1881 32 NA NA NOT_NAMED 1881-08-20 00:00:00 TS 33.3000 -70.2000 spur-other 558 558 _____________O -1 33.3000 -70.2000 HU 70 18 39
1881230N28281 1881 32 NA NA NOT_NAMED 1881-08-20 03:00:00 TS 34.0073 -69.4994 spur-other 581 581 _____________P -1 34.0073 -69.4994 HU 70 18 40
1881230N28281 1881 32 NA NA NOT_NAMED 1881-08-20 06:00:00 TS 34.7000 -68.8000 spur-other 619 619 _____________O -1 34.7000 -68.8000 HU 70 17 40
1881230N28281 1881 32 NA NA NOT_NAMED 1881-08-20 09:00:00 TS 35.3268 -68.1549 spur-other 661 661 _____________P -1 35.3268 -68.1549 HU 70 17 39
1881230N28281 1881 32 NA NA NOT_NAMED 1881-08-20 12:00:00 TS 36.0000 -67.5000 spur-other 670 610 _____________O -1 36.0000 -67.5000 HU 70 19 36
1881230N28281 1881 32 NA NA NOT_NAMED 1881-08-20 15:00:00 TS 36.8266 -66.8010 spur-other 610 560 _____________P -1 36.8266 -66.8010 HU 70 21 35
1881230N28281 1881 32 NA NA NOT_NAMED 1881-08-20 18:00:00 TS 37.7000 -66.0000 spur-other 560 534 _____________O -1 37.7000 -66.0000 HU 70 21 36
1881230N28281 1881 32 NA NA NOT_NAMED 1881-08-20 21:00:00 TS 38.4982 -65.2672 spur-other 534 477 _____________P -1 38.5222 -65.0496 HU 70 22 44
1881230N28281 1881 32 NA NA NOT_NAMED 1881-08-21 00:00:00 TS 39.3000 -64.0000 spur-other 479 460 _____________O -1 39.3000 -64.0000 HU 70 33 61
1881230N28281 1881 32 NA NA NOT_NAMED 1881-08-21 03:00:00 TS 40.1114 -61.5763 spur-other 486 ______________ -1 HU 40 66

IBTrACS Databaseについて

本データベースは、米国NOAAが公開する1842年以降の世界の熱帯低気圧のベストトラックデータアーカイブInternational Best Track Archive for Climate Stewardship (IBTrACS)を、ウェブで閲覧しやすい形式に変換したものです。

最終更新日:2021-11-26